Williams, California
Current Conditions -  °F | °C
As of 1:38 AM on Friday 24 Oct 2014 (Local Time) from KMYV Reporting Station
Haze Haze  
Wind Chill: 51°   Ceiling: Unl
Heat Index: 51°   Visibility: 1.2mi
Dew Point: 50°   Wind: 0mph
Humidity: 96%   Direction: NA
Pressure: 30"   Gusts: NA
Location:  39.15°N, 122.15°W
Report Text: KMYV 240838Z AUTO 00000KT 1 1/4SM BR FEW003 11/10 A3000 RMK AO2 T01060100
Loading
Personal Weather Stations






























Interactive Weather Map
Tropical Storm Tracking
New forecast layout! Learn more

10-Day Weather Forecast

Advertisements
Track Severe Weather on mobile